sensor_id;sensor_type;location;lat;lon;timestamp;P1;durP1;ratioP1;P2;durP2;ratioP2
30874;SDS011;17581;43.222;27.924;2022-07-23T00:00:52;14.85;;;4.07;;
30874;SDS011;17581;43.222;27.924;2022-07-23T00:03:17;8.43;;;3.97;;
30874;SDS011;17581;43.222;27.924;2022-07-23T00:05:42;13.45;;;4.28;;
30874;SDS011;17581;43.222;27.924;2022-07-23T00:08:08;10.20;;;4.50;;
30874;SDS011;17581;43.222;27.924;2022-07-23T00:10:34;7.82;;;3.83;;
30874;SDS011;17581;43.222;27.924;2022-07-23T00:13:00;13.38;;;3.70;;
30874;SDS011;17581;43.222;27.924;2022-07-23T00:15:25;7.78;;;3.58;;
30874;SDS011;17581;43.222;27.924;2022-07-23T00:17:51;10.80;;;4.10;;
30874;SDS011;17581;43.222;27.924;2022-07-23T00:20:16;25.63;;;4.68;;
30874;SDS011;17581;43.222;27.924;2022-07-23T00:23:01;16.90;;;4.13;;
30874;SDS011;17581;43.222;27.924;2022-07-23T00:25:26;11.20;;;4.57;;
30874;SDS011;17581;43.222;27.924;2022-07-23T00:27:52;10.07;;;3.75;;
30874;SDS011;17581;43.222;27.924;2022-07-23T00:30:17;13.73;;;4.28;;
30874;SDS011;17581;43.222;27.924;2022-07-23T00:32:54;14.07;;;4.25;;
30874;SDS011;17581;43.222;27.924;2022-07-23T00:35:24;8.57;;;4.38;;
30874;SDS011;17581;43.222;27.924;2022-07-23T00:37:51;15.32;;;4.82;;
30874;SDS011;17581;43.222;27.924;2022-07-23T00:40:17;7.00;;;4.00;;
30874;SDS011;17581;43.222;27.924;2022-07-23T00:42:43;14.10;;;4.25;;
30874;SDS011;17581;43.222;27.924;2022-07-23T00:45:08;15.43;;;5.20;;
30874;SDS011;17581;43.222;27.924;2022-07-23T00:47:34;9.85;;;3.92;;
30874;SDS011;17581;43.222;27.924;2022-07-23T00:50:00;8.77;;;4.10;;
30874;SDS011;17581;43.222;27.924;2022-07-23T00:52:26;13.77;;;3.90;;
30874;SDS011;17581;43.222;27.924;2022-07-23T00:54:51;12.63;;;3.40;;
30874;SDS011;17581;43.222;27.924;2022-07-23T00:57:17;26.50;;;4.63;;
30874;SDS011;17581;43.222;27.924;2022-07-23T00:59:43;16.85;;;3.75;;
30874;SDS011;17581;43.222;27.924;2022-07-23T01:02:08;6.28;;;3.47;;
30874;SDS011;17581;43.222;27.924;2022-07-23T01:04:34;10.85;;;3.72;;
30874;SDS011;17581;43.222;27.924;2022-07-23T01:06:59;10.93;;;4.00;;
30874;SDS011;17581;43.222;27.924;2022-07-23T01:09:25;12.88;;;3.78;;
30874;SDS011;17581;43.222;27.924;2022-07-23T01:11:51;12.23;;;3.67;;
30874;SDS011;17581;43.222;27.924;2022-07-23T01:14:19;9.68;;;3.28;;
30874;SDS011;17581;43.222;27.924;2022-07-23T01:16:46;7.88;;;3.85;;
30874;SDS011;17581;43.222;27.924;2022-07-23T01:19:13;14.07;;;3.35;;
30874;SDS011;17581;43.222;27.924;2022-07-23T01:21:40;18.60;;;4.30;;
30874;SDS011;17581;43.222;27.924;2022-07-23T01:24:12;13.40;;;3.65;;
30874;SDS011;17581;43.222;27.924;2022-07-23T01:26:40;17.02;;;3.58;;
30874;SDS011;17581;43.222;27.924;2022-07-23T01:29:07;12.32;;;3.75;;
30874;SDS011;17581;43.222;27.924;2022-07-23T01:31:33;9.25;;;3.38;;
30874;SDS011;17581;43.222;27.924;2022-07-23T01:33:58;6.22;;;3.22;;
30874;SDS011;17581;43.222;27.924;2022-07-23T01:36:24;7.65;;;3.10;;
30874;SDS011;17581;43.222;27.924;2022-07-23T01:38:50;13.32;;;4.18;;
30874;SDS011;17581;43.222;27.924;2022-07-23T01:41:16;9.50;;;2.85;;
30874;SDS011;17581;43.222;27.924;2022-07-23T01:43:41;6.00;;;3.22;;
30874;SDS011;17581;43.222;27.924;2022-07-23T01:46:07;13.23;;;3.85;;
30874;SDS011;17581;43.222;27.924;2022-07-23T01:48:32;11.30;;;3.90;;
30874;SDS011;17581;43.222;27.924;2022-07-23T01:50:58;10.32;;;3.58;;
30874;SDS011;17581;43.222;27.924;2022-07-23T01:53:23;11.70;;;3.95;;
30874;SDS011;17581;43.222;27.924;2022-07-23T01:55:49;22.80;;;3.78;;
30874;SDS011;17581;43.222;27.924;2022-07-23T01:58:14;7.50;;;3.00;;
30874;SDS011;17581;43.222;27.924;2022-07-23T02:00:40;10.90;;;3.75;;
30874;SDS011;17581;43.222;27.924;2022-07-23T02:03:05;10.45;;;3.42;;
30874;SDS011;17581;43.222;27.924;2022-07-23T02:05:31;19.98;;;3.60;;
30874;SDS011;17581;43.222;27.924;2022-07-23T02:07:57;6.55;;;3.60;;
30874;SDS011;17581;43.222;27.924;2022-07-23T02:10:23;6.38;;;3.33;;
30874;SDS011;17581;43.222;27.924;2022-07-23T02:12:48;13.02;;;3.70;;
30874;SDS011;17581;43.222;27.924;2022-07-23T02:15:14;11.95;;;4.43;;
30874;SDS011;17581;43.222;27.924;2022-07-23T02:17:40;9.20;;;3.92;;
30874;SDS011;17581;43.222;27.924;2022-07-23T02:20:06;16.60;;;3.85;;
30874;SDS011;17581;43.222;27.924;2022-07-23T02:22:32;8.50;;;3.38;;
30874;SDS011;17581;43.222;27.924;2022-07-23T02:24:58;26.77;;;5.70;;
30874;SDS011;17581;43.222;27.924;2022-07-23T02:27:24;11.52;;;3.92;;
30874;SDS011;17581;43.222;27.924;2022-07-23T02:29:49;12.90;;;4.05;;
30874;SDS011;17581;43.222;27.924;2022-07-23T02:32:15;9.10;;;4.40;;
30874;SDS011;17581;43.222;27.924;2022-07-23T02:34:40;24.83;;;4.85;;
30874;SDS011;17581;43.222;27.924;2022-07-23T02:37:06;10.23;;;4.03;;
30874;SDS011;17581;43.222;27.924;2022-07-23T02:39:33;11.82;;;4.30;;
30874;SDS011;17581;43.222;27.924;2022-07-23T02:41:59;19.88;;;4.93;;
30874;SDS011;17581;43.222;27.924;2022-07-23T02:44:25;26.67;;;5.60;;
30874;SDS011;17581;43.222;27.924;2022-07-23T02:46:50;12.93;;;5.25;;
30874;SDS011;17581;43.222;27.924;2022-07-23T02:49:16;12.90;;;6.20;;
30874;SDS011;17581;43.222;27.924;2022-07-23T02:51:41;16.10;;;5.13;;
30874;SDS011;17581;43.222;27.924;2022-07-23T02:54:07;18.83;;;5.63;;
30874;SDS011;17581;43.222;27.924;2022-07-23T02:56:32;11.50;;;5.35;;
30874;SDS011;17581;43.222;27.924;2022-07-23T02:58:58;24.70;;;5.95;;
30874;SDS011;17581;43.222;27.924;2022-07-23T03:01:23;37.60;;;6.70;;
30874;SDS011;17581;43.222;27.924;2022-07-23T03:03:49;21.38;;;6.63;;
30874;SDS011;17581;43.222;27.924;2022-07-23T03:06:14;30.90;;;5.40;;
30874;SDS011;17581;43.222;27.924;2022-07-23T03:08:39;30.60;;;6.95;;
30874;SDS011;17581;43.222;27.924;2022-07-23T03:11:05;20.20;;;6.18;;
30874;SDS011;17581;43.222;27.924;2022-07-23T03:13:36;18.10;;;4.93;;
30874;SDS011;17581;43.222;27.924;2022-07-23T03:16:02;31.13;;;6.68;;
30874;SDS011;17581;43.222;27.924;2022-07-23T03:18:28;29.90;;;6.85;;
30874;SDS011;17581;43.222;27.924;2022-07-23T03:20:53;19.65;;;7.10;;
30874;SDS011;17581;43.222;27.924;2022-07-23T03:23:19;36.40;;;8.10;;
30874;SDS011;17581;43.222;27.924;2022-07-23T03:25:44;26.48;;;7.60;;
30874;SDS011;17581;43.222;27.924;2022-07-23T03:28:12;30.75;;;8.35;;
30874;SDS011;17581;43.222;27.924;2022-07-23T03:30:37;25.52;;;7.13;;
30874;SDS011;17581;43.222;27.924;2022-07-23T03:33:02;30.70;;;8.43;;
30874;SDS011;17581;43.222;27.924;2022-07-23T03:35:28;35.92;;;7.18;;
30874;SDS011;17581;43.222;27.924;2022-07-23T03:37:53;33.15;;;8.13;;
30874;SDS011;17581;43.222;27.924;2022-07-23T03:40:19;28.30;;;7.03;;
30874;SDS011;17581;43.222;27.924;2022-07-23T03:42:44;36.28;;;7.43;;
30874;SDS011;17581;43.222;27.924;2022-07-23T03:45:10;21.85;;;6.95;;
30874;SDS011;17581;43.222;27.924;2022-07-23T03:47:36;24.88;;;6.53;;
30874;SDS011;17581;43.222;27.924;2022-07-23T03:50:02;28.27;;;7.22;;
30874;SDS011;17581;43.222;27.924;2022-07-23T03:52:28;25.67;;;6.97;;
30874;SDS011;17581;43.222;27.924;2022-07-23T03:54:53;35.30;;;7.07;;
30874;SDS011;17581;43.222;27.924;2022-07-23T03:57:19;19.02;;;6.30;;
30874;SDS011;17581;43.222;27.924;2022-07-23T03:59:44;19.17;;;6.57;;
30874;SDS011;17581;43.222;27.924;2022-07-23T04:02:10;26.33;;;6.25;;
30874;SDS011;17581;43.222;27.924;2022-07-23T04:04:35;21.98;;;6.10;;
30874;SDS011;17581;43.222;27.924;2022-07-23T04:07:00;20.55;;;5.93;;
30874;SDS011;17581;43.222;27.924;2022-07-23T04:09:26;22.88;;;6.28;;
30874;SDS011;17581;43.222;27.924;2022-07-23T04:11:51;19.42;;;6.07;;
30874;SDS011;17581;43.222;27.924;2022-07-23T04:14:17;15.60;;;6.18;;
30874;SDS011;17581;43.222;27.924;2022-07-23T04:16:42;13.00;;;4.63;;
30874;SDS011;17581;43.222;27.924;2022-07-23T04:19:08;17.88;;;5.25;;
30874;SDS011;17581;43.222;27.924;2022-07-23T04:21:33;14.30;;;3.80;;
30874;SDS011;17581;43.222;27.924;2022-07-23T04:23:59;13.32;;;5.03;;
30874;SDS011;17581;43.222;27.924;2022-07-23T04:26:24;20.08;;;5.30;;
30874;SDS011;17581;43.222;27.924;2022-07-23T04:28:50;16.77;;;5.18;;
30874;SDS011;17581;43.222;27.924;2022-07-23T04:31:15;17.27;;;5.72;;
30874;SDS011;17581;43.222;27.924;2022-07-23T04:33:40;21.10;;;6.63;;
30874;SDS011;17581;43.222;27.924;2022-07-23T04:36:06;15.73;;;4.63;;
30874;SDS011;17581;43.222;27.924;2022-07-23T04:38:32;16.65;;;5.28;;
30874;SDS011;17581;43.222;27.924;2022-07-23T04:40:57;13.43;;;4.90;;
30874;SDS011;17581;43.222;27.924;2022-07-23T04:43:23;21.83;;;5.10;;
30874;SDS011;17581;43.222;27.924;2022-07-23T04:45:48;29.98;;;5.97;;
30874;SDS011;17581;43.222;27.924;2022-07-23T04:48:14;14.63;;;5.28;;
30874;SDS011;17581;43.222;27.924;2022-07-23T04:50:40;26.35;;;6.50;;
30874;SDS011;17581;43.222;27.924;2022-07-23T04:53:05;29.25;;;7.38;;
30874;SDS011;17581;43.222;27.924;2022-07-23T04:55:31;39.28;;;6.95;;
30874;SDS011;17581;43.222;27.924;2022-07-23T04:57:56;26.50;;;6.70;;
30874;SDS011;17581;43.222;27.924;2022-07-23T05:00:22;19.73;;;6.32;;
30874;SDS011;17581;43.222;27.924;2022-07-23T05:02:47;59.17;;;8.63;;
30874;SDS011;17581;43.222;27.924;2022-07-23T05:05:12;29.95;;;7.18;;
30874;SDS011;17581;43.222;27.924;2022-07-23T05:07:38;39.00;;;7.95;;
30874;SDS011;17581;43.222;27.924;2022-07-23T05:10:04;25.52;;;7.13;;
30874;SDS011;17581;43.222;27.924;2022-07-23T05:12:29;37.83;;;7.28;;
30874;SDS011;17581;43.222;27.924;2022-07-23T05:14:55;40.97;;;8.23;;
30874;SDS011;17581;43.222;27.924;2022-07-23T05:17:20;40.08;;;9.07;;
30874;SDS011;17581;43.222;27.924;2022-07-23T05:19:46;21.98;;;7.85;;
30874;SDS011;17581;43.222;27.924;2022-07-23T05:22:11;38.13;;;9.25;;
30874;SDS011;17581;43.222;27.924;2022-07-23T05:24:37;31.98;;;7.90;;
30874;SDS011;17581;43.222;27.924;2022-07-23T05:27:02;28.88;;;7.68;;
30874;SDS011;17581;43.222;27.924;2022-07-23T05:29:28;35.20;;;7.55;;
30874;SDS011;17581;43.222;27.924;2022-07-23T05:31:53;29.65;;;7.97;;
30874;SDS011;17581;43.222;27.924;2022-07-23T05:34:19;37.33;;;9.02;;
30874;SDS011;17581;43.222;27.924;2022-07-23T05:36:44;35.33;;;9.18;;
30874;SDS011;17581;43.222;27.924;2022-07-23T05:39:10;39.83;;;8.30;;
30874;SDS011;17581;43.222;27.924;2022-07-23T05:41:36;43.95;;;8.07;;
30874;SDS011;17581;43.222;27.924;2022-07-23T05:44:01;46.20;;;8.32;;
30874;SDS011;17581;43.222;27.924;2022-07-23T05:46:27;33.40;;;7.82;;
30874;SDS011;17581;43.222;27.924;2022-07-23T05:48:52;33.03;;;8.93;;
30874;SDS011;17581;43.222;27.924;2022-07-23T05:51:21;39.63;;;8.88;;
30874;SDS011;17581;43.222;27.924;2022-07-23T05:53:47;29.38;;;8.77;;
30874;SDS011;17581;43.222;27.924;2022-07-23T05:56:13;31.88;;;8.35;;
30874;SDS011;17581;43.222;27.924;2022-07-23T05:58:39;32.28;;;8.18;;
30874;SDS011;17581;43.222;27.924;2022-07-23T06:01:05;30.17;;;8.40;;
30874;SDS011;17581;43.222;27.924;2022-07-23T06:03:30;30.05;;;7.75;;
30874;SDS011;17581;43.222;27.924;2022-07-23T06:05:56;33.13;;;10.88;;
30874;SDS011;17581;43.222;27.924;2022-07-23T06:08:21;38.67;;;10.80;;
30874;SDS011;17581;43.222;27.924;2022-07-23T06:10:47;48.03;;;9.85;;
30874;SDS011;17581;43.222;27.924;2022-07-23T06:13:12;25.77;;;8.95;;
30874;SDS011;17581;43.222;27.924;2022-07-23T06:15:38;37.55;;;8.82;;
30874;SDS011;17581;43.222;27.924;2022-07-23T06:18:03;52.47;;;9.30;;
30874;SDS011;17581;43.222;27.924;2022-07-23T06:20:29;41.63;;;7.90;;
30874;SDS011;17581;43.222;27.924;2022-07-23T06:22:54;29.52;;;8.07;;
30874;SDS011;17581;43.222;27.924;2022-07-23T06:25:20;33.95;;;8.25;;
30874;SDS011;17581;43.222;27.924;2022-07-23T06:27:45;34.38;;;7.80;;
30874;SDS011;17581;43.222;27.924;2022-07-23T06:30:12;35.88;;;7.53;;
30874;SDS011;17581;43.222;27.924;2022-07-23T06:32:38;44.38;;;9.27;;
30874;SDS011;17581;43.222;27.924;2022-07-23T06:35:04;32.53;;;8.70;;
30874;SDS011;17581;43.222;27.924;2022-07-23T06:37:29;41.30;;;9.57;;
30874;SDS011;17581;43.222;27.924;2022-07-23T06:39:55;21.73;;;7.03;;
30874;SDS011;17581;43.222;27.924;2022-07-23T06:42:21;24.67;;;7.90;;
30874;SDS011;17581;43.222;27.924;2022-07-23T06:44:46;21.25;;;8.02;;
30874;SDS011;17581;43.222;27.924;2022-07-23T06:47:11;28.38;;;8.65;;
30874;SDS011;17581;43.222;27.924;2022-07-23T06:49:37;16.65;;;7.60;;
30874;SDS011;17581;43.222;27.924;2022-07-23T06:52:02;44.95;;;7.50;;
30874;SDS011;17581;43.222;27.924;2022-07-23T06:54:42;30.30;;;6.93;;
30874;SDS011;17581;43.222;27.924;2022-07-23T06:57:22;38.10;;;7.63;;
30874;SDS011;17581;43.222;27.924;2022-07-23T06:59:48;26.20;;;6.78;;
30874;SDS011;17581;43.222;27.924;2022-07-23T07:02:13;25.83;;;6.18;;
30874;SDS011;17581;43.222;27.924;2022-07-23T07:04:39;24.50;;;7.60;;
30874;SDS011;17581;43.222;27.924;2022-07-23T07:07:04;33.53;;;7.05;;
30874;SDS011;17581;43.222;27.924;2022-07-23T07:09:29;44.80;;;8.32;;
30874;SDS011;17581;43.222;27.924;2022-07-23T07:11:55;30.98;;;7.45;;
30874;SDS011;17581;43.222;27.924;2022-07-23T07:14:21;30.25;;;6.03;;
30874;SDS011;17581;43.222;27.924;2022-07-23T07:16:47;34.33;;;6.78;;
30874;SDS011;17581;43.222;27.924;2022-07-23T07:19:12;24.45;;;7.13;;
30874;SDS011;17581;43.222;27.924;2022-07-23T07:21:39;21.70;;;7.18;;
30874;SDS011;17581;43.222;27.924;2022-07-23T07:24:05;28.23;;;6.13;;
30874;SDS011;17581;43.222;27.924;2022-07-23T07:26:31;18.02;;;5.85;;
30874;SDS011;17581;43.222;27.924;2022-07-23T07:28:57;21.77;;;5.65;;
30874;SDS011;17581;43.222;27.924;2022-07-23T07:31:22;35.83;;;5.28;;
30874;SDS011;17581;43.222;27.924;2022-07-23T07:33:48;15.90;;;4.03;;
30874;SDS011;17581;43.222;27.924;2022-07-23T07:36:13;13.95;;;5.05;;
30874;SDS011;17581;43.222;27.924;2022-07-23T07:38:39;11.35;;;4.95;;
30874;SDS011;17581;43.222;27.924;2022-07-23T07:41:04;17.67;;;6.22;;
30874;SDS011;17581;43.222;27.924;2022-07-23T07:43:30;18.00;;;5.15;;
30874;SDS011;17581;43.222;27.924;2022-07-23T07:45:55;29.38;;;5.93;;
30874;SDS011;17581;43.222;27.924;2022-07-23T07:48:20;14.98;;;5.47;;
30874;SDS011;17581;43.222;27.924;2022-07-23T07:50:46;11.50;;;5.30;;
30874;SDS011;17581;43.222;27.924;2022-07-23T07:53:11;16.42;;;5.93;;
30874;SDS011;17581;43.222;27.924;2022-07-23T07:55:40;19.92;;;5.07;;
30874;SDS011;17581;43.222;27.924;2022-07-23T07:58:08;21.53;;;4.90;;
30874;SDS011;17581;43.222;27.924;2022-07-23T08:00:34;13.63;;;5.10;;
30874;SDS011;17581;43.222;27.924;2022-07-23T08:02:59;15.27;;;4.70;;
30874;SDS011;17581;43.222;27.924;2022-07-23T08:05:26;14.05;;;4.80;;
30874;SDS011;17581;43.222;27.924;2022-07-23T08:07:57;6.47;;;3.60;;
30874;SDS011;17581;43.222;27.924;2022-07-23T08:10:24;10.40;;;3.42;;
30874;SDS011;17581;43.222;27.924;2022-07-23T08:12:52;10.30;;;3.80;;
30874;SDS011;17581;43.222;27.924;2022-07-23T08:15:19;13.43;;;3.97;;
30874;SDS011;17581;43.222;27.924;2022-07-23T08:17:46;12.30;;;4.88;;
30874;SDS011;17581;43.222;27.924;2022-07-23T08:20:13;16.25;;;5.07;;
30874;SDS011;17581;43.222;27.924;2022-07-23T08:22:44;14.65;;;4.65;;
30874;SDS011;17581;43.222;27.924;2022-07-23T08:25:41;17.15;;;4.45;;
30874;SDS011;17581;43.222;27.924;2022-07-23T08:28:10;5.78;;;3.80;;
30874;SDS011;17581;43.222;27.924;2022-07-23T08:30:38;27.38;;;5.20;;
30874;SDS011;17581;43.222;27.924;2022-07-23T08:33:09;10.55;;;4.00;;
30874;SDS011;17581;43.222;27.924;2022-07-23T08:35:40;15.13;;;6.30;;
30874;SDS011;17581;43.222;27.924;2022-07-23T08:38:08;12.65;;;4.38;;
30874;SDS011;17581;43.222;27.924;2022-07-23T08:40:36;8.60;;;4.28;;
30874;SDS011;17581;43.222;27.924;2022-07-23T08:43:04;14.82;;;4.45;;
30874;SDS011;17581;43.222;27.924;2022-07-23T08:45:31;15.38;;;4.50;;
30874;SDS011;17581;43.222;27.924;2022-07-23T08:48:01;13.48;;;4.40;;
30874;SDS011;17581;43.222;27.924;2022-07-23T08:50:28;14.80;;;4.13;;
30874;SDS011;17581;43.222;27.924;2022-07-23T08:52:53;20.70;;;4.28;;
30874;SDS011;17581;43.222;27.924;2022-07-23T08:55:20;13.15;;;3.92;;
30874;SDS011;17581;43.222;27.924;2022-07-23T08:57:47;14.25;;;4.25;;
30874;SDS011;17581;43.222;27.924;2022-07-23T09:00:14;20.42;;;5.38;;
30874;SDS011;17581;43.222;27.924;2022-07-23T09:02:40;13.30;;;4.43;;
30874;SDS011;17581;43.222;27.924;2022-07-23T09:05:08;7.80;;;4.07;;
30874;SDS011;17581;43.222;27.924;2022-07-23T09:07:38;15.02;;;5.05;;
30874;SDS011;17581;43.222;27.924;2022-07-23T09:10:23;12.45;;;3.78;;
30874;SDS011;17581;43.222;27.924;2022-07-23T09:12:49;18.98;;;5.43;;
30874;SDS011;17581;43.222;27.924;2022-07-23T09:15:14;18.10;;;5.00;;
30874;SDS011;17581;43.222;27.924;2022-07-23T09:17:41;13.77;;;4.18;;
30874;SDS011;17581;43.222;27.924;2022-07-23T09:20:11;30.13;;;5.60;;
30874;SDS011;17581;43.222;27.924;2022-07-23T09:22:38;26.63;;;4.55;;
30874;SDS011;17581;43.222;27.924;2022-07-23T09:25:11;12.77;;;4.38;;
30874;SDS011;17581;43.222;27.924;2022-07-23T09:27:45;17.17;;;4.53;;
30874;SDS011;17581;43.222;27.924;2022-07-23T09:30:11;15.75;;;4.22;;
30874;SDS011;17581;43.222;27.924;2022-07-23T09:32:37;16.00;;;3.92;;
30874;SDS011;17581;43.222;27.924;2022-07-23T09:35:04;19.50;;;5.07;;
30874;SDS011;17581;43.222;27.924;2022-07-23T09:37:30;7.18;;;3.13;;
30874;SDS011;17581;43.222;27.924;2022-07-23T09:40:03;12.93;;;3.50;;
30874;SDS011;17581;43.222;27.924;2022-07-23T09:42:33;10.63;;;4.28;;
30874;SDS011;17581;43.222;27.924;2022-07-23T09:44:59;14.90;;;4.50;;
30874;SDS011;17581;43.222;27.924;2022-07-23T09:47:25;12.65;;;5.13;;
30874;SDS011;17581;43.222;27.924;2022-07-23T09:50:06;17.85;;;4.20;;
30874;SDS011;17581;43.222;27.924;2022-07-23T09:52:34;34.80;;;6.78;;
30874;SDS011;17581;43.222;27.924;2022-07-23T09:55:02;11.70;;;3.97;;
30874;SDS011;17581;43.222;27.924;2022-07-23T09:57:29;9.00;;;3.85;;
30874;SDS011;17581;43.222;27.924;2022-07-23T09:59:57;17.42;;;4.03;;
30874;SDS011;17581;43.222;27.924;2022-07-23T10:02:26;15.10;;;3.78;;
30874;SDS011;17581;43.222;27.924;2022-07-23T10:04:53;9.43;;;4.00;;
30874;SDS011;17581;43.222;27.924;2022-07-23T10:07:21;19.02;;;4.47;;
30874;SDS011;17581;43.222;27.924;2022-07-23T10:09:48;6.05;;;4.32;;
30874;SDS011;17581;43.222;27.924;2022-07-23T10:12:17;11.63;;;3.92;;
30874;SDS011;17581;43.222;27.924;2022-07-23T10:15:02;11.45;;;4.43;;
30874;SDS011;17581;43.222;27.924;2022-07-23T10:17:31;16.63;;;3.78;;
30874;SDS011;17581;43.222;27.924;2022-07-23T10:19:56;15.73;;;4.05;;
30874;SDS011;17581;43.222;27.924;2022-07-23T10:22:23;10.85;;;4.70;;
30874;SDS011;17581;43.222;27.924;2022-07-23T10:30:07;15.20;;;4.30;;
30874;SDS011;17581;43.222;27.924;2022-07-23T10:41:40;9.18;;;4.13;;
30874;SDS011;17581;43.222;27.924;2022-07-23T10:49:31;11.98;;;4.18;;
30874;SDS011;17581;43.222;27.924;2022-07-23T10:54:52;8.77;;;4.10;;
30874;SDS011;17581;43.222;27.924;2022-07-23T10:57:18;18.73;;;4.65;;
30874;SDS011;17581;43.222;27.924;2022-07-23T11:02:40;30.05;;;4.97;;
30874;SDS011;17581;43.222;27.924;2022-07-23T11:05:09;13.82;;;4.50;;
30874;SDS011;17581;43.222;27.924;2022-07-23T11:07:37;18.73;;;4.15;;
30874;SDS011;17581;43.222;27.924;2022-07-23T11:10:38;14.05;;;4.07;;
30874;SDS011;17581;43.222;27.924;2022-07-23T11:26:56;8.80;;;3.92;;
30874;SDS011;17581;43.222;27.924;2022-07-23T11:31:52;13.20;;;4.30;;
30874;SDS011;17581;43.222;27.924;2022-07-23T11:37:10;17.42;;;4.50;;
30874;SDS011;17581;43.222;27.924;2022-07-23T11:39:37;8.88;;;4.75;;
30874;SDS011;17581;43.222;27.924;2022-07-23T11:42:04;9.43;;;4.32;;
30874;SDS011;17581;43.222;27.924;2022-07-23T11:44:38;14.50;;;4.18;;
30874;SDS011;17581;43.222;27.924;2022-07-23T11:47:05;16.17;;;4.63;;
30874;SDS011;17581;43.222;27.924;2022-07-23T11:49:33;10.82;;;4.18;;
30874;SDS011;17581;43.222;27.924;2022-07-23T11:52:05;8.80;;;5.40;;
30874;SDS011;17581;43.222;27.924;2022-07-23T11:54:32;9.77;;;4.82;;
30874;SDS011;17581;43.222;27.924;2022-07-23T11:57:11;17.77;;;4.72;;
30874;SDS011;17581;43.222;27.924;2022-07-23T11:59:36;9.68;;;4.30;;
30874;SDS011;17581;43.222;27.924;2022-07-23T12:02:06;12.27;;;3.67;;
30874;SDS011;17581;43.222;27.924;2022-07-23T12:04:41;9.98;;;3.75;;
30874;SDS011;17581;43.222;27.924;2022-07-23T12:09:49;8.75;;;3.80;;
30874;SDS011;17581;43.222;27.924;2022-07-23T12:12:15;18.75;;;4.13;;
30874;SDS011;17581;43.222;27.924;2022-07-23T12:14:50;11.25;;;4.10;;
30874;SDS011;17581;43.222;27.924;2022-07-23T12:17:20;15.32;;;4.18;;
30874;SDS011;17581;43.222;27.924;2022-07-23T12:19:51;10.20;;;3.97;;
30874;SDS011;17581;43.222;27.924;2022-07-23T12:22:17;8.80;;;3.83;;
30874;SDS011;17581;43.222;27.924;2022-07-23T12:24:57;10.15;;;3.95;;
30874;SDS011;17581;43.222;27.924;2022-07-23T12:27:27;16.17;;;3.45;;
30874;SDS011;17581;43.222;27.924;2022-07-23T12:29:53;14.75;;;4.72;;
30874;SDS011;17581;43.222;27.924;2022-07-23T12:32:24;15.27;;;4.80;;
30874;SDS011;17581;43.222;27.924;2022-07-23T12:35:04;14.40;;;4.40;;
30874;SDS011;17581;43.222;27.924;2022-07-23T12:37:32;10.77;;;5.40;;
30874;SDS011;17581;43.222;27.924;2022-07-23T12:40:18;12.23;;;4.63;;
30874;SDS011;17581;43.222;27.924;2022-07-23T12:42:47;11.98;;;4.80;;
30874;SDS011;17581;43.222;27.924;2022-07-23T12:45:13;26.35;;;5.25;;
30874;SDS011;17581;43.222;27.924;2022-07-23T12:50:37;19.35;;;5.32;;
30874;SDS011;17581;43.222;27.924;2022-07-23T12:56:12;10.45;;;4.80;;
30874;SDS011;17581;43.222;27.924;2022-07-23T13:01:21;13.93;;;4.93;;
30874;SDS011;17581;43.222;27.924;2022-07-23T13:06:53;15.80;;;6.45;;
30874;SDS011;17581;43.222;27.924;2022-07-23T13:09:23;50.25;;;8.00;;
30874;SDS011;17581;43.222;27.924;2022-07-23T13:11:50;10.93;;;4.82;;
30874;SDS011;17581;43.222;27.924;2022-07-23T13:14:18;12.60;;;4.32;;
30874;SDS011;17581;43.222;27.924;2022-07-23T13:16:45;18.95;;;5.05;;
30874;SDS011;17581;43.222;27.924;2022-07-23T13:19:11;7.50;;;3.38;;
30874;SDS011;17581;43.222;27.924;2022-07-23T13:21:38;7.75;;;4.20;;
30874;SDS011;17581;43.222;27.924;2022-07-23T13:24:05;11.18;;;4.22;;
30874;SDS011;17581;43.222;27.924;2022-07-23T13:26:30;9.70;;;3.63;;
30874;SDS011;17581;43.222;27.924;2022-07-23T13:28:56;10.80;;;3.92;;
30874;SDS011;17581;43.222;27.924;2022-07-23T13:31:21;13.30;;;4.10;;
30874;SDS011;17581;43.222;27.924;2022-07-23T13:33:47;22.95;;;4.95;;
30874;SDS011;17581;43.222;27.924;2022-07-23T13:36:13;8.93;;;4.30;;
30874;SDS011;17581;43.222;27.924;2022-07-23T13:38:39;10.13;;;3.92;;
30874;SDS011;17581;43.222;27.924;2022-07-23T13:41:05;11.50;;;4.13;;
30874;SDS011;17581;43.222;27.924;2022-07-23T13:43:31;12.70;;;4.60;;
30874;SDS011;17581;43.222;27.924;2022-07-23T13:45:56;9.98;;;4.65;;
30874;SDS011;17581;43.222;27.924;2022-07-23T13:48:22;13.73;;;4.80;;
30874;SDS011;17581;43.222;27.924;2022-07-23T13:50:48;11.20;;;4.68;;
30874;SDS011;17581;43.222;27.924;2022-07-23T13:53:18;14.10;;;4.10;;
30874;SDS011;17581;43.222;27.924;2022-07-23T13:55:46;17.25;;;4.32;;
30874;SDS011;17581;43.222;27.924;2022-07-23T13:58:12;9.05;;;4.28;;
30874;SDS011;17581;43.222;27.924;2022-07-23T14:00:39;11.80;;;4.78;;
30874;SDS011;17581;43.222;27.924;2022-07-23T14:03:08;13.57;;;4.20;;
30874;SDS011;17581;43.222;27.924;2022-07-23T14:05:34;23.38;;;4.15;;
30874;SDS011;17581;43.222;27.924;2022-07-23T14:08:00;11.85;;;3.92;;
30874;SDS011;17581;43.222;27.924;2022-07-23T14:10:26;16.42;;;4.82;;
30874;SDS011;17581;43.222;27.924;2022-07-23T14:12:52;15.25;;;4.63;;
30874;SDS011;17581;43.222;27.924;2022-07-23T14:15:21;13.90;;;4.13;;
30874;SDS011;17581;43.222;27.924;2022-07-23T14:17:46;14.88;;;4.78;;
30874;SDS011;17581;43.222;27.924;2022-07-23T14:20:13;10.98;;;4.10;;
30874;SDS011;17581;43.222;27.924;2022-07-23T14:22:39;11.43;;;4.38;;
30874;SDS011;17581;43.222;27.924;2022-07-23T14:25:06;8.30;;;4.50;;
30874;SDS011;17581;43.222;27.924;2022-07-23T14:27:32;12.32;;;4.57;;
30874;SDS011;17581;43.222;27.924;2022-07-23T14:29:58;13.23;;;3.80;;
30874;SDS011;17581;43.222;27.924;2022-07-23T14:32:24;10.05;;;4.13;;
30874;SDS011;17581;43.222;27.924;2022-07-23T14:34:49;9.10;;;3.17;;
30874;SDS011;17581;43.222;27.924;2022-07-23T14:37:15;7.50;;;3.50;;
30874;SDS011;17581;43.222;27.924;2022-07-23T14:39:41;17.70;;;4.13;;
30874;SDS011;17581;43.222;27.924;2022-07-23T14:42:08;8.80;;;4.03;;
30874;SDS011;17581;43.222;27.924;2022-07-23T14:44:34;8.30;;;3.85;;
30874;SDS011;17581;43.222;27.924;2022-07-23T14:47:00;18.88;;;4.57;;
30874;SDS011;17581;43.222;27.924;2022-07-23T14:49:28;11.00;;;4.50;;
30874;SDS011;17581;43.222;27.924;2022-07-23T14:51:53;9.18;;;4.07;;
30874;SDS011;17581;43.222;27.924;2022-07-23T14:54:19;11.50;;;4.75;;
30874;SDS011;17581;43.222;27.924;2022-07-23T14:56:45;17.58;;;4.50;;
30874;SDS011;17581;43.222;27.924;2022-07-23T14:59:11;22.95;;;4.57;;
30874;SDS011;17581;43.222;27.924;2022-07-23T15:01:36;14.20;;;4.53;;
30874;SDS011;17581;43.222;27.924;2022-07-23T15:04:03;16.60;;;5.57;;
30874;SDS011;17581;43.222;27.924;2022-07-23T15:06:29;12.68;;;4.68;;
30874;SDS011;17581;43.222;27.924;2022-07-23T15:08:55;23.67;;;5.78;;
30874;SDS011;17581;43.222;27.924;2022-07-23T15:11:20;19.17;;;5.38;;
30874;SDS011;17581;43.222;27.924;2022-07-23T15:13:46;19.77;;;5.57;;
30874;SDS011;17581;43.222;27.924;2022-07-23T15:16:11;14.02;;;5.32;;
30874;SDS011;17581;43.222;27.924;2022-07-23T15:18:37;24.58;;;7.43;;
30874;SDS011;17581;43.222;27.924;2022-07-23T15:21:02;16.00;;;5.50;;